BCT weather

Boca Raton Airport
Boca Raton, Florida, United States

Public forecast

Using degrees Fahrenheit for public forecast. Weather courtesy of forecast.io.

Current aviation weather report (METAR) for Boca Raton Airport

Report is more than 2 hours old.

Retrieved 2019/10/16 02:47 UTC (6 hours ago):

KBCT 160247Z 12007KT 10SM BKN049 27/20 A3000 RMK LAST

Closest aviation forecast (TAF) to Boca Raton Airport

Closest forecast is Fort Lauderdale Executive Airport, 11.4 nm (21.1 km) SSW. Retrieved 2019/10/16 06:36 UTC (2 hours ago):

TAF KFXE 160533Z 1606/1706 12007KT P6SM FEW025 SCT040 FM161500 20010KT P6SM SCT030 SCT060 FM170200 23006KT P6SM FEW015 FEW250